SMTO2: Mountain Fork Nr Smithville, O

Data processed at Thu Oct 17 2019 23:15


All information presented herein is the property of the government of the United States of America and may be revised or deleted at any time without prior notice.
Dissemination of this information without the expressed written consent of the Public Affairs Office, Tulsa District U.S. Army Corps of Engineers is strictly prohibited.
These data are gathered electronically and, as presented, have not undergone any form of quality control. These data are not guaranteed to be valid or correct.
Go to home page.
Go to station list.
Go to home page.

Upstream stations:

Downstream station:
Previous Day
Next Day
Current Day
    
SHEF ID:       SMTO2     Mountain Fork at Smithville, OK
STATION TYPE:  

               PRECIP     STAGE  RIV-FLOW  BAT-LOAD
                   in        ft       cfs      volt
              Ccp-Rev   Ccp-Rev   Ccp-Rev   Ccp-Rev
(US/Central)
10/17 00:00      0.00      8.65       780     12.73
10/17 01:00      0.00      8.62       756     12.73
10/17 02:00      0.00      8.60       741     12.73
10/17 03:00      0.00      8.58       726     12.65
10/17 04:00      0.00      8.56       711     12.65
10/17 05:00      0.00      8.54       696     12.65
10/17 06:00      0.00      8.52       681     12.65
10/17 07:00      0.00      8.50       667     12.65
10/17 08:00      0.00      8.49       660     12.65
10/17 09:00      0.00      8.47       646     12.81
10/17 10:00      0.00      8.45       632     13.37
10/17 11:00      0.00      8.43       618     13.13
10/17 12:00      0.00      8.41       605     13.29
10/17 13:00      0.00      8.40       598     13.29
10/17 14:00      0.00      8.38       585     13.44
10/17 15:00      0.00      8.37       579     13.37
10/17 16:00      0.00      8.36       572     13.37
10/17 17:00      0.00      8.34       560     13.21
10/17 18:00      0.00      8.33       553     13.05
10/17 19:00      0.00      8.32       547     12.89
10/17 20:00      0.00      8.30       535     12.81
10/17 21:00      0.00      8.29       529     12.81
10/17 22:00      0.00      8.28       523     12.81
10/17 23:00      ----      ----      ----      ----